createdAt,value
2018-11-25T00:04:41.675Z,9.10
2018-11-25T00:09:24.616Z,8.43
2018-11-25T00:14:08.801Z,11.50
2018-11-25T00:18:51.680Z,9.77
2018-11-25T00:23:34.747Z,9.97
2018-11-25T00:28:17.580Z,11.20
2018-11-25T00:33:00.555Z,11.67
2018-11-25T00:37:48.099Z,12.27
2018-11-25T00:42:26.575Z,10.37
2018-11-25T00:47:09.472Z,9.17
2018-11-25T00:51:52.545Z,8.23
2018-11-25T00:56:35.439Z,9.10
2018-11-25T01:01:18.548Z,9.13
2018-11-25T01:06:01.424Z,8.80
2018-11-25T01:10:44.377Z,10.73
2018-11-25T01:15:27.271Z,9.37
2018-11-25T01:20:12.128Z,9.73
2018-11-25T01:24:55.039Z,8.67
2018-11-25T01:29:37.942Z,9.63
2018-11-25T01:34:20.811Z,9.53
2018-11-25T01:39:04.069Z,9.13
2018-11-25T01:43:48.144Z,8.90
2018-11-25T01:48:30.986Z,8.90
2018-11-25T01:53:13.899Z,9.07
2018-11-25T01:57:56.772Z,10.30
2018-11-25T02:02:39.933Z,9.77
2018-11-25T02:07:22.779Z,10.93
2018-11-25T02:12:05.836Z,9.10
2018-11-25T02:16:48.706Z,14.07
2018-11-25T02:21:31.685Z,16.83
2018-11-25T02:26:14.555Z,12.73
2018-11-25T02:30:58.471Z,14.90
2018-11-25T02:35:41.348Z,10.73
2018-11-25T02:40:24.244Z,13.57
2018-11-25T02:45:11.104Z,12.20
2018-11-25T02:49:56.212Z,10.30
2018-11-25T02:54:39.088Z,10.63
2018-11-25T02:59:21.944Z,10.97
2018-11-25T03:04:04.893Z,10.47
2018-11-25T03:08:47.794Z,10.13
2018-11-25T03:13:32.206Z,11.10
2018-11-25T03:18:15.079Z,8.77
2018-11-25T03:22:58.486Z,9.53
2018-11-25T03:27:41.324Z,9.70
2018-11-25T03:32:24.405Z,10.50
2018-11-25T03:37:07.287Z,8.90
2018-11-25T03:41:50.172Z,10.10
2018-11-25T03:46:33.045Z,11.20
2018-11-25T03:51:17.998Z,9.97
2018-11-25T03:56:00.931Z,9.23
2018-11-25T04:00:44.030Z,11.13
2018-11-25T04:05:26.906Z,11.37
2018-11-25T04:10:12.980Z,9.93
2018-11-25T04:14:55.865Z,10.70
2018-11-25T04:19:39.912Z,14.70
2018-11-25T04:24:22.735Z,10.13
2018-11-25T04:29:07.694Z,9.50
2018-11-25T04:33:50.988Z,10.70
2018-11-25T04:38:34.130Z,11.80
2018-11-25T04:43:17.741Z,11.33
2018-11-25T04:48:00.630Z,15.27
2018-11-25T04:52:44.279Z,14.07
2018-11-25T04:57:27.144Z,16.07
2018-11-25T05:02:10.179Z,19.87
2018-11-25T05:06:53.346Z,16.30
2018-11-25T05:11:36.679Z,13.77
2018-11-25T05:16:19.559Z,17.00
2018-11-25T05:21:02.529Z,15.53
2018-11-25T05:25:45.431Z,12.07
2018-11-25T05:30:29.605Z,13.23
2018-11-25T05:35:13.627Z,15.33
2018-11-25T05:39:57.589Z,15.13
2018-11-25T05:44:40.445Z,13.70
2018-11-25T05:49:24.347Z,14.27
2018-11-25T05:54:07.272Z,11.40
2018-11-25T05:58:52.202Z,12.30
2018-11-25T06:03:35.099Z,12.07
2018-11-25T06:08:17.972Z,16.37
2018-11-25T06:13:00.931Z,13.47
2018-11-25T06:17:43.895Z,12.20
2018-11-25T06:22:26.907Z,11.10
2018-11-25T06:27:09.799Z,18.17
2018-11-25T06:31:52.909Z,20.87
2018-11-25T06:36:35.840Z,18.47
2018-11-25T06:41:18.935Z,31.13
2018-11-25T06:46:01.995Z,53.67
2018-11-25T06:50:46.960Z,43.67
2018-11-25T06:55:29.889Z,31.40
2018-11-25T07:00:15.182Z,29.10
2018-11-25T07:04:58.081Z,38.30
2018-11-25T07:09:41.053Z,27.37
2018-11-25T07:14:23.960Z,29.23
2018-11-25T07:19:06.863Z,28.23
2018-11-25T07:23:49.807Z,43.30
2018-11-25T07:28:32.757Z,39.00
2018-11-25T07:33:15.664Z,32.47
2018-11-25T07:37:58.559Z,29.47
2018-11-25T07:42:41.489Z,26.00
2018-11-25T07:47:24.359Z,32.07
2018-11-25T07:52:07.301Z,21.10
2018-11-25T07:56:50.161Z,22.73
2018-11-25T08:01:35.118Z,29.93
2018-11-25T08:06:18.258Z,22.40
2018-11-25T08:11:01.995Z,23.03
2018-11-25T08:15:44.855Z,18.57
2018-11-25T08:20:27.892Z,15.07
2018-11-25T08:25:14.771Z,12.87
2018-11-25T08:29:58.791Z,11.80
2018-11-25T08:34:41.675Z,15.40
2018-11-25T08:39:25.588Z,13.60
2018-11-25T08:44:08.488Z,14.67
2018-11-25T08:48:53.392Z,14.23
2018-11-25T08:53:36.303Z,14.10
2018-11-25T08:58:20.251Z,12.13
2018-11-25T09:03:03.127Z,13.10
2018-11-25T09:07:46.043Z,14.53
2018-11-25T09:12:29.117Z,14.33
2018-11-25T09:17:11.989Z,15.17
2018-11-25T09:21:56.154Z,12.47
2018-11-25T09:26:39.056Z,16.70
2018-11-25T09:31:22.165Z,15.83
2018-11-25T09:36:05.134Z,13.47
2018-11-25T09:40:48.170Z,14.17
2018-11-25T09:45:31.109Z,15.63
2018-11-25T09:50:21.347Z,11.97
2018-11-25T09:55:04.975Z,12.63
2018-11-25T09:59:48.895Z,13.20
2018-11-25T10:04:36.211Z,12.90
2018-11-25T10:09:21.367Z,12.90
2018-11-25T10:14:04.665Z,10.30
2018-11-25T10:18:48.677Z,10.87
2018-11-25T10:23:34.066Z,9.70
2018-11-25T10:28:17.007Z,9.77
2018-11-25T10:33:01.535Z,9.77
2018-11-25T10:37:45.517Z,10.77
2018-11-25T10:42:28.492Z,10.80
2018-11-25T10:47:11.411Z,10.50
2018-11-25T10:51:54.464Z,10.77
2018-11-25T10:56:37.315Z,11.30
2018-11-25T11:01:26.687Z,10.73
2018-11-25T11:06:14.933Z,10.70
2018-11-25T11:10:58.026Z,10.30
2018-11-25T11:15:41.144Z,10.63
2018-11-25T11:20:25.094Z,9.60
2018-11-25T11:25:08.918Z,9.77
2018-11-25T11:29:52.863Z,10.43
2018-11-25T11:34:35.735Z,10.93
2018-11-25T11:45:35.603Z,12.93
2018-11-25T11:50:20.882Z,12.70
2018-11-25T11:55:04.265Z,12.67
2018-11-25T11:59:48.858Z,16.93
2018-11-25T12:04:31.729Z,19.37
2018-11-25T12:09:14.795Z,14.17
2018-11-25T12:13:57.753Z,11.23
2018-11-25T12:18:40.999Z,13.57
2018-11-25T12:23:23.932Z,17.37
2018-11-25T12:28:08.074Z,11.30
2018-11-25T12:32:52.671Z,14.53
2018-11-25T12:37:36.161Z,14.73
2018-11-25T12:42:18.809Z,14.50
2018-11-25T12:47:01.685Z,11.97
2018-11-25T12:51:44.903Z,14.63
2018-11-25T12:56:27.822Z,22.07
2018-11-25T13:01:10.984Z,15.60
2018-11-25T13:05:54.010Z,14.60
2018-11-25T13:10:38.177Z,15.30
2018-11-25T13:15:21.098Z,14.77
2018-11-25T13:20:06.635Z,15.30
2018-11-25T13:24:49.508Z,17.47
2018-11-25T13:29:33.490Z,17.10
2018-11-25T13:34:16.398Z,19.50
2018-11-25T13:39:01.304Z,15.70
2018-11-25T13:43:44.232Z,18.83
2018-11-25T13:48:27.327Z,26.00
2018-11-25T13:53:10.209Z,16.62
2018-11-25T13:57:56.701Z,21.35
2018-11-25T14:02:40.185Z,18.10
2018-11-25T14:07:23.592Z,23.10
2018-11-25T14:12:06.646Z,22.73
2018-11-25T14:16:49.585Z,26.97
2018-11-25T14:21:32.665Z,23.87
2018-11-25T14:26:20.008Z,27.37
2018-11-25T14:31:04.184Z,36.50
2018-11-25T14:35:47.109Z,48.00
2018-11-25T14:40:31.139Z,60.50
2018-11-25T14:45:19.877Z,59.80
2018-11-25T14:50:03.499Z,55.50
2018-11-25T14:54:51.162Z,53.93
2018-11-25T14:59:31.100Z,43.60
2018-11-25T15:04:14.018Z,44.90
2018-11-25T15:08:58.151Z,54.47
2018-11-25T15:13:41.036Z,102.20
2018-11-25T15:18:25.191Z,110.83
2018-11-25T15:23:10.470Z,90.53
2018-11-25T15:27:53.627Z,83.00
2018-11-25T15:32:36.548Z,75.87
2018-11-25T15:37:19.454Z,50.57
2018-11-25T15:42:02.351Z,37.93
2018-11-25T15:46:45.230Z,40.40
2018-11-25T15:51:28.185Z,53.43
2018-11-25T15:56:11.172Z,89.67
2018-11-25T16:00:56.912Z,59.93
2018-11-25T16:05:42.320Z,49.60
2018-11-25T16:10:26.446Z,45.33
2018-11-25T16:15:11.948Z,46.55
2018-11-25T16:19:54.911Z,45.63
2018-11-25T16:24:37.813Z,45.67
2018-11-25T16:29:24.395Z,34.10
2018-11-25T16:34:07.255Z,37.03
2018-11-25T16:38:51.587Z,33.47
2018-11-25T16:43:34.435Z,27.60
2018-11-25T16:48:17.323Z,34.70
2018-11-25T16:53:00.221Z,38.27
2018-11-25T16:57:44.004Z,39.70
2018-11-25T17:02:26.859Z,31.80
2018-11-25T17:07:09.913Z,28.38
2018-11-25T17:11:52.862Z,29.10
2018-11-25T17:16:36.747Z,30.07
2018-11-25T17:21:20.390Z,28.57
2018-11-25T17:26:03.313Z,22.33
2018-11-25T17:30:46.421Z,27.00
2018-11-25T17:35:31.075Z,24.17
2018-11-25T17:40:14.565Z,23.60
2018-11-25T17:45:00.233Z,26.37
2018-11-25T17:49:43.317Z,27.20
2018-11-25T17:54:26.809Z,28.93
2018-11-25T17:59:09.851Z,20.10
2018-11-25T18:03:52.778Z,23.07
2018-11-25T18:08:36.908Z,20.23
2018-11-25T18:14:50.850Z,19.17
2018-11-25T18:19:33.964Z,23.97
2018-11-25T18:24:16.911Z,18.90
2018-11-25T18:29:00.083Z,20.93
2018-11-25T18:33:43.048Z,23.40
2018-11-25T18:38:27.065Z,20.43
2018-11-25T18:43:09.988Z,21.63
2018-11-25T18:47:53.439Z,20.47
2018-11-25T18:52:36.338Z,20.27
2018-11-25T18:57:25.548Z,26.87
2018-11-25T19:02:51.482Z,42.80
2018-11-25T19:07:40.512Z,21.97
2018-11-25T19:12:28.569Z,19.73
2018-11-25T19:17:13.927Z,20.37
2018-11-25T19:21:56.803Z,20.97
2018-11-25T19:26:42.766Z,22.07
2018-11-25T19:31:25.661Z,23.60
2018-11-25T19:36:08.621Z,22.87
2018-11-25T19:40:51.694Z,21.73
2018-11-25T19:45:35.117Z,22.57
2018-11-25T19:50:29.360Z,21.10
2018-11-25T19:55:13.387Z,19.60
2018-11-25T19:59:56.590Z,19.77
2018-11-25T20:04:39.489Z,23.37
2018-11-25T20:09:23.404Z,25.63
2018-11-25T20:14:06.399Z,23.37
2018-11-25T20:18:50.364Z,27.10
2018-11-25T20:23:33.323Z,25.90
2018-11-25T20:28:16.377Z,21.40
2018-11-25T20:33:04.724Z,18.50
2018-11-25T20:37:53.244Z,21.60
2018-11-25T20:42:36.239Z,20.17
2018-11-25T20:47:19.447Z,20.80
2018-11-25T20:52:07.927Z,17.00
2018-11-25T20:56:51.034Z,18.93
2018-11-25T21:01:34.907Z,22.17
2018-11-25T21:06:17.865Z,21.00
2018-11-25T21:11:00.979Z,17.93
2018-11-25T21:15:43.957Z,18.23
2018-11-25T21:20:27.019Z,18.93
2018-11-25T21:25:13.853Z,19.67
2018-11-25T21:29:56.894Z,20.43
2018-11-25T21:34:39.809Z,18.33
2018-11-25T21:39:23.248Z,22.53
2018-11-25T21:44:06.763Z,22.30
2018-11-25T21:48:50.756Z,20.53
2018-11-25T21:53:33.676Z,22.30
2018-11-25T21:58:17.335Z,20.55
2018-11-25T22:03:00.274Z,18.70
2018-11-25T22:07:44.333Z,19.10
2018-11-25T22:12:27.222Z,19.67
2018-11-25T22:17:10.292Z,17.33
2018-11-25T22:21:53.211Z,19.00
2018-11-25T22:26:36.938Z,19.90
2018-11-25T22:31:19.880Z,19.25
2018-11-25T22:36:02.731Z,17.83
2018-11-25T22:40:45.775Z,17.47
2018-11-25T22:45:28.643Z,16.70
2018-11-25T22:50:13.779Z,18.17
2018-11-25T22:54:56.648Z,17.77
2018-11-25T22:59:39.550Z,18.87
2018-11-25T23:04:33.408Z,18.07
2018-11-25T23:09:17.384Z,18.77
2018-11-25T23:14:00.259Z,16.60
2018-11-25T23:18:44.191Z,16.90
2018-11-25T23:23:27.094Z,18.37
2018-11-25T23:28:10.179Z,16.83
2018-11-25T23:32:53.060Z,16.70
2018-11-25T23:37:36.979Z,18.13
2018-11-25T23:42:19.875Z,16.87
2018-11-25T23:47:02.987Z,16.70
2018-11-25T23:51:45.869Z,17.47
2018-11-25T23:56:28.779Z,16.57
